Terminal Aerodrome Forecast
Issued by NWS Louisville, KY

Home | Current Version | Previous Version | Text Only | Print | Product List | Glossary On
Versions: 1 2 3 4 5 6 7 8 9 10 11 12 13
000
FTUS43 KLMK 292320
TAFLEX
TAF
KLEX 292320Z 3000/3024 18005KT P6SM BKN200
     FM300800 18004KT 3SM BR BKN200
     FM301300 20007KT P6SM SCT035 PROB30 3018/3022 -TSRA SCT040CB=

USA.gov is the U.S. government's official web portal to all federal, state and local government web resources and services.